sensor_id;sensor_type;location;lat;lon;timestamp;pressure;altitude;pressure_sealevel;temperature;humidity
12182;BME280;6154;51.550;12.138;2023-03-26T00:01:31;99461.25;;;13.92;54.08
12182;BME280;6154;51.550;12.138;2023-03-26T00:04:05;99462.50;;;13.67;54.64
12182;BME280;6154;51.550;12.138;2023-03-26T00:06:35;99462.22;;;13.70;54.68
12182;BME280;6154;51.550;12.138;2023-03-26T00:09:09;99463.53;;;13.96;54.04
12182;BME280;6154;51.550;12.138;2023-03-26T00:11:39;99460.19;;;13.94;54.18
12182;BME280;6154;51.550;12.138;2023-03-26T00:14:10;99460.28;;;13.93;54.45
12182;BME280;6154;51.550;12.138;2023-03-26T00:16:40;99471.41;;;13.98;54.15
12182;BME280;6154;51.550;12.138;2023-03-26T00:19:09;99462.16;;;14.02;54.09
12182;BME280;6154;51.550;12.138;2023-03-26T00:21:38;99462.00;;;13.94;54.45
12182;BME280;6154;51.550;12.138;2023-03-26T00:24:09;99476.50;;;14.10;54.00
12182;BME280;6154;51.550;12.138;2023-03-26T00:26:37;99466.50;;;13.82;54.73
12182;BME280;6154;51.550;12.138;2023-03-26T00:29:06;99473.84;;;13.90;55.03
12182;BME280;6154;51.550;12.138;2023-03-26T00:31:36;99472.09;;;14.00;54.50
12182;BME280;6154;51.550;12.138;2023-03-26T00:34:07;99463.75;;;13.84;55.35
12182;BME280;6154;51.550;12.138;2023-03-26T00:36:37;99471.78;;;14.14;54.10
12182;BME280;6154;51.550;12.138;2023-03-26T00:39:08;99476.38;;;13.91;55.02
12182;BME280;6154;51.550;12.138;2023-03-26T00:41:36;99480.47;;;14.16;54.00
12182;BME280;6154;51.550;12.138;2023-03-26T00:44:09;99476.63;;;14.09;54.13
12182;BME280;6154;51.550;12.138;2023-03-26T00:46:38;99475.66;;;13.68;55.43
12182;BME280;6154;51.550;12.138;2023-03-26T00:49:07;99475.72;;;13.78;55.24
12182;BME280;6154;51.550;12.138;2023-03-26T00:51:37;99477.75;;;13.86;55.03
12182;BME280;6154;51.550;12.138;2023-03-26T00:54:06;99473.91;;;13.78;55.53
12182;BME280;6154;51.550;12.138;2023-03-26T00:56:34;99462.56;;;13.76;55.92
12182;BME280;6154;51.550;12.138;2023-03-26T00:59:03;99470.75;;;13.85;55.45
12182;BME280;6154;51.550;12.138;2023-03-26T01:01:31;99463.47;;;13.87;55.42
12182;BME280;6154;51.550;12.138;2023-03-26T01:04:21;99458.28;;;13.85;55.47
12182;BME280;6154;51.550;12.138;2023-03-26T01:06:56;99453.88;;;13.95;55.69
12182;BME280;6154;51.550;12.138;2023-03-26T01:09:30;99457.75;;;13.91;55.22
12182;BME280;6154;51.550;12.138;2023-03-26T01:12:01;99457.06;;;13.89;55.41
12182;BME280;6154;51.550;12.138;2023-03-26T01:14:30;99458.88;;;13.89;55.34
12182;BME280;6154;51.550;12.138;2023-03-26T01:17:00;99464.03;;;13.69;55.84
12182;BME280;6154;51.550;12.138;2023-03-26T01:19:36;99472.66;;;13.82;55.46
12182;BME280;6154;51.550;12.138;2023-03-26T01:22:10;99467.69;;;13.89;55.50
12182;BME280;6154;51.550;12.138;2023-03-26T01:24:44;99462.22;;;13.91;55.18
12182;BME280;6154;51.550;12.138;2023-03-26T01:27:30;99475.28;;;13.94;55.09
12182;BME280;6154;51.550;12.138;2023-03-26T01:30:09;99477.97;;;13.94;55.46
12182;BME280;6154;51.550;12.138;2023-03-26T01:32:47;99476.56;;;13.78;55.54
12182;BME280;6154;51.550;12.138;2023-03-26T01:35:25;99470.22;;;13.91;55.40
12182;BME280;6154;51.550;12.138;2023-03-26T01:38:03;99473.13;;;13.88;55.66
12182;BME280;6154;51.550;12.138;2023-03-26T01:40:41;99453.94;;;13.84;55.58
12182;BME280;6154;51.550;12.138;2023-03-26T01:43:21;99464.12;;;13.79;55.74
12182;BME280;6154;51.550;12.138;2023-03-26T01:45:52;99458.34;;;13.74;55.89
12182;BME280;6154;51.550;12.138;2023-03-26T01:48:27;99462.50;;;13.67;55.81
12182;BME280;6154;51.550;12.138;2023-03-26T01:50:57;99463.81;;;13.61;56.15
12182;BME280;6154;51.550;12.138;2023-03-26T01:53:26;99467.09;;;13.65;55.57
12182;BME280;6154;51.550;12.138;2023-03-26T01:56:05;99453.03;;;13.42;56.34
12182;BME280;6154;51.550;12.138;2023-03-26T01:58:41;99459.63;;;13.59;56.15
12182;BME280;6154;51.550;12.138;2023-03-26T02:01:17;99457.53;;;13.62;55.87
12182;BME280;6154;51.550;12.138;2023-03-26T02:03:56;99451.44;;;13.71;55.59
12182;BME280;6154;51.550;12.138;2023-03-26T02:06:31;99450.16;;;13.45;56.27
12182;BME280;6154;51.550;12.138;2023-03-26T02:09:06;99451.97;;;13.44;56.65
12182;BME280;6154;51.550;12.138;2023-03-26T02:11:37;99455.09;;;13.70;55.54
12182;BME280;6154;51.550;12.138;2023-03-26T02:14:08;99454.44;;;13.78;55.28
12182;BME280;6154;51.550;12.138;2023-03-26T02:16:36;99443.25;;;13.74;55.27
12182;BME280;6154;51.550;12.138;2023-03-26T02:19:05;99449.53;;;13.73;55.49
12182;BME280;6154;51.550;12.138;2023-03-26T02:21:42;99448.62;;;13.63;55.73
12182;BME280;6154;51.550;12.138;2023-03-26T02:24:11;99445.75;;;13.55;56.38
12182;BME280;6154;51.550;12.138;2023-03-26T02:26:41;99445.00;;;13.64;56.06
12182;BME280;6154;51.550;12.138;2023-03-26T02:29:10;99438.75;;;13.75;55.43
12182;BME280;6154;51.550;12.138;2023-03-26T02:31:38;99451.22;;;13.74;55.65
12182;BME280;6154;51.550;12.138;2023-03-26T02:34:06;99451.09;;;13.76;55.67
12182;BME280;6154;51.550;12.138;2023-03-26T02:36:35;99440.44;;;13.76;55.60
12182;BME280;6154;51.550;12.138;2023-03-26T02:39:03;99441.59;;;13.62;56.02
12182;BME280;6154;51.550;12.138;2023-03-26T02:41:32;99444.00;;;13.65;55.82
12182;BME280;6154;51.550;12.138;2023-03-26T02:44:02;99444.31;;;13.72;55.64
12182;BME280;6154;51.550;12.138;2023-03-26T02:46:33;99441.34;;;13.65;55.94
12182;BME280;6154;51.550;12.138;2023-03-26T02:49:02;99439.72;;;13.53;56.84
12182;BME280;6154;51.550;12.138;2023-03-26T02:51:31;99445.13;;;13.51;56.68
12182;BME280;6154;51.550;12.138;2023-03-26T02:54:01;99439.66;;;13.64;56.02
12182;BME280;6154;51.550;12.138;2023-03-26T02:56:31;99435.69;;;13.59;56.29
12182;BME280;6154;51.550;12.138;2023-03-26T02:59:02;99428.16;;;13.43;57.00
12182;BME280;6154;51.550;12.138;2023-03-26T03:01:30;99439.97;;;13.50;56.63
12182;BME280;6154;51.550;12.138;2023-03-26T03:04:02;99434.44;;;13.42;56.60
12182;BME280;6154;51.550;12.138;2023-03-26T03:06:31;99429.00;;;13.43;56.59
12182;BME280;6154;51.550;12.138;2023-03-26T03:08:59;99427.69;;;13.38;56.82
12182;BME280;6154;51.550;12.138;2023-03-26T03:11:30;99430.09;;;13.41;56.27
12182;BME280;6154;51.550;12.138;2023-03-26T03:13:58;99424.09;;;13.28;56.76
12182;BME280;6154;51.550;12.138;2023-03-26T03:16:30;99423.88;;;13.19;57.05
12182;BME280;6154;51.550;12.138;2023-03-26T03:18:59;99423.63;;;13.22;56.69
12182;BME280;6154;51.550;12.138;2023-03-26T03:21:28;99421.72;;;13.13;56.96
12182;BME280;6154;51.550;12.138;2023-03-26T03:23:57;99422.16;;;13.18;56.17
12182;BME280;6154;51.550;12.138;2023-03-26T03:26:27;99418.09;;;13.14;56.40
12182;BME280;6154;51.550;12.138;2023-03-26T03:28:57;99423.53;;;13.13;56.18
12182;BME280;6154;51.550;12.138;2023-03-26T03:31:25;99418.72;;;13.07;56.47
12182;BME280;6154;51.550;12.138;2023-03-26T03:33:57;99429.69;;;13.02;56.63
12182;BME280;6154;51.550;12.138;2023-03-26T03:36:29;99430.22;;;12.96;56.67
12182;BME280;6154;51.550;12.138;2023-03-26T03:39:00;99420.91;;;12.90;57.25
12182;BME280;6154;51.550;12.138;2023-03-26T03:41:28;99425.38;;;12.90;57.18
12182;BME280;6154;51.550;12.138;2023-03-26T03:43:57;99430.81;;;12.88;57.57
12182;BME280;6154;51.550;12.138;2023-03-26T03:46:27;99429.50;;;12.94;57.07
12182;BME280;6154;51.550;12.138;2023-03-26T03:48:57;99431.91;;;12.97;57.26
12182;BME280;6154;51.550;12.138;2023-03-26T03:51:26;99427.69;;;12.94;57.42
12182;BME280;6154;51.550;12.138;2023-03-26T03:53:54;99426.31;;;13.00;56.74
12182;BME280;6154;51.550;12.138;2023-03-26T03:56:24;99419.72;;;12.94;57.09
12182;BME280;6154;51.550;12.138;2023-03-26T03:58:54;99428.53;;;12.95;57.00
12182;BME280;6154;51.550;12.138;2023-03-26T04:01:24;99432.53;;;12.78;57.80
12182;BME280;6154;51.550;12.138;2023-03-26T04:03:53;99437.72;;;12.80;57.62
12182;BME280;6154;51.550;12.138;2023-03-26T04:06:23;99443.63;;;12.72;57.75
12182;BME280;6154;51.550;12.138;2023-03-26T04:08:51;99441.59;;;12.76;57.25
12182;BME280;6154;51.550;12.138;2023-03-26T04:11:20;99441.72;;;12.74;57.82
12182;BME280;6154;51.550;12.138;2023-03-26T04:13:50;99436.41;;;12.74;57.56
12182;BME280;6154;51.550;12.138;2023-03-26T04:16:18;99443.28;;;12.65;58.23
12182;BME280;6154;51.550;12.138;2023-03-26T04:18:47;99439.19;;;12.73;57.53
12182;BME280;6154;51.550;12.138;2023-03-26T04:21:15;99438.81;;;12.66;58.05
12182;BME280;6154;51.550;12.138;2023-03-26T04:23:45;99444.47;;;12.61;58.17
12182;BME280;6154;51.550;12.138;2023-03-26T04:26:15;99438.22;;;12.62;57.85
12182;BME280;6154;51.550;12.138;2023-03-26T04:28:48;99429.31;;;12.63;57.90
12182;BME280;6154;51.550;12.138;2023-03-26T04:31:23;99435.81;;;12.48;58.72
12182;BME280;6154;51.550;12.138;2023-03-26T04:33:58;99438.97;;;12.53;58.24
12182;BME280;6154;51.550;12.138;2023-03-26T04:36:32;99443.06;;;12.57;58.38
12182;BME280;6154;51.550;12.138;2023-03-26T04:39:02;99439.31;;;12.60;57.99
12182;BME280;6154;51.550;12.138;2023-03-26T04:41:35;99434.97;;;12.59;57.84
12182;BME280;6154;51.550;12.138;2023-03-26T04:44:04;99438.22;;;12.51;58.64
12182;BME280;6154;51.550;12.138;2023-03-26T04:46:34;99437.87;;;12.56;58.28
12182;BME280;6154;51.550;12.138;2023-03-26T04:49:02;99434.25;;;12.57;58.03
12182;BME280;6154;51.550;12.138;2023-03-26T04:51:35;99435.94;;;12.58;57.85
12182;BME280;6154;51.550;12.138;2023-03-26T04:54:09;99434.72;;;12.51;58.09
12182;BME280;6154;51.550;12.138;2023-03-26T04:56:42;99436.91;;;12.57;57.38
12182;BME280;6154;51.550;12.138;2023-03-26T04:59:14;99430.25;;;12.51;57.70
12182;BME280;6154;51.550;12.138;2023-03-26T05:01:43;99434.84;;;12.38;58.64
12182;BME280;6154;51.550;12.138;2023-03-26T05:04:12;99436.41;;;12.41;58.13
12182;BME280;6154;51.550;12.138;2023-03-26T05:06:41;99429.06;;;12.44;57.65
12182;BME280;6154;51.550;12.138;2023-03-26T05:09:11;99429.53;;;12.49;57.26
12182;BME280;6154;51.550;12.138;2023-03-26T05:11:41;99430.13;;;12.42;57.99
12182;BME280;6154;51.550;12.138;2023-03-26T05:14:09;99421.25;;;12.43;58.22
12182;BME280;6154;51.550;12.138;2023-03-26T05:16:37;99430.37;;;12.50;57.32
12182;BME280;6154;51.550;12.138;2023-03-26T05:19:07;99427.84;;;12.48;57.72
12182;BME280;6154;51.550;12.138;2023-03-26T05:21:36;99430.25;;;12.51;57.39
12182;BME280;6154;51.550;12.138;2023-03-26T05:24:04;99427.38;;;12.54;57.46
12182;BME280;6154;51.550;12.138;2023-03-26T05:26:34;99422.06;;;12.54;57.77
12182;BME280;6154;51.550;12.138;2023-03-26T05:29:03;99419.41;;;12.54;58.07
12182;BME280;6154;51.550;12.138;2023-03-26T05:31:32;99424.94;;;12.51;59.06
12182;BME280;6154;51.550;12.138;2023-03-26T05:34:00;99419.88;;;12.59;59.13
12182;BME280;6154;51.550;12.138;2023-03-26T05:36:29;99424.69;;;12.77;59.01
12182;BME280;6154;51.550;12.138;2023-03-26T05:38:58;99430.69;;;12.90;58.68
12182;BME280;6154;51.550;12.138;2023-03-26T05:41:28;99425.38;;;12.90;59.69
12182;BME280;6154;51.550;12.138;2023-03-26T05:43:57;99426.19;;;13.13;58.72
12182;BME280;6154;51.550;12.138;2023-03-26T05:46:26;99429.56;;;13.15;58.64
12182;BME280;6154;51.550;12.138;2023-03-26T05:48:54;99435.09;;;13.34;57.97
12182;BME280;6154;51.550;12.138;2023-03-26T05:51:23;99422.63;;;13.35;58.37
12182;BME280;6154;51.550;12.138;2023-03-26T05:53:54;99427.06;;;13.45;57.95
12182;BME280;6154;51.550;12.138;2023-03-26T05:56:24;99430.69;;;13.44;58.51
12182;BME280;6154;51.550;12.138;2023-03-26T05:58:58;99414.69;;;13.56;58.12
12182;BME280;6154;51.550;12.138;2023-03-26T06:01:27;99417.50;;;13.75;57.02
12182;BME280;6154;51.550;12.138;2023-03-26T06:03:56;99418.06;;;13.78;57.27
12182;BME280;6154;51.550;12.138;2023-03-26T06:06:25;99414.22;;;13.92;56.73
12182;BME280;6154;51.550;12.138;2023-03-26T06:08:53;99401.25;;;13.99;56.77
12182;BME280;6154;51.550;12.138;2023-03-26T06:11:29;99402.84;;;14.11;56.59
12182;BME280;6154;51.550;12.138;2023-03-26T06:14:00;99401.88;;;14.12;56.67
12182;BME280;6154;51.550;12.138;2023-03-26T06:16:28;99401.50;;;14.17;56.45
12182;BME280;6154;51.550;12.138;2023-03-26T06:18:58;99410.62;;;14.24;56.08
12182;BME280;6154;51.550;12.138;2023-03-26T06:21:27;99408.31;;;14.40;56.25
12182;BME280;6154;51.550;12.138;2023-03-26T06:23:55;99416.66;;;14.47;56.17
12182;BME280;6154;51.550;12.138;2023-03-26T06:26:25;99408.00;;;14.54;56.27
12182;BME280;6154;51.550;12.138;2023-03-26T06:28:53;99414.59;;;14.60;56.06
12182;BME280;6154;51.550;12.138;2023-03-26T06:31:23;99414.06;;;14.66;55.85
12182;BME280;6154;51.550;12.138;2023-03-26T06:33:52;99409.56;;;14.66;56.26
12182;BME280;6154;51.550;12.138;2023-03-26T06:36:20;99410.12;;;14.70;56.11
12182;BME280;6154;51.550;12.138;2023-03-26T06:38:48;99405.09;;;14.77;55.67
12182;BME280;6154;51.550;12.138;2023-03-26T06:41:17;99401.78;;;14.84;56.04
12182;BME280;6154;51.550;12.138;2023-03-26T06:43:48;99409.34;;;14.89;55.97
12182;BME280;6154;51.550;12.138;2023-03-26T06:46:16;99410.19;;;14.89;56.11
12182;BME280;6154;51.550;12.138;2023-03-26T06:48:54;99399.50;;;14.80;56.43
12182;BME280;6154;51.550;12.138;2023-03-26T06:51:23;99406.78;;;14.78;56.55
12182;BME280;6154;51.550;12.138;2023-03-26T06:53:53;99405.41;;;14.93;56.20
12182;BME280;6154;51.550;12.138;2023-03-26T06:56:23;99401.91;;;15.02;55.81
12182;BME280;6154;51.550;12.138;2023-03-26T06:58:52;99402.44;;;14.77;56.45
12182;BME280;6154;51.550;12.138;2023-03-26T07:01:28;99400.53;;;14.98;55.80
12182;BME280;6154;51.550;12.138;2023-03-26T07:04:13;99399.22;;;14.92;56.27
12182;BME280;6154;51.550;12.138;2023-03-26T07:06:53;99405.03;;;15.17;55.94
12182;BME280;6154;51.550;12.138;2023-03-26T07:09:28;99399.56;;;15.28;55.85
12182;BME280;6154;51.550;12.138;2023-03-26T07:11:58;99399.87;;;15.44;55.51
12182;BME280;6154;51.550;12.138;2023-03-26T07:14:28;99398.44;;;15.50;55.18
12182;BME280;6154;51.550;12.138;2023-03-26T07:16:59;99402.09;;;15.39;55.80
12182;BME280;6154;51.550;12.138;2023-03-26T07:19:29;99399.28;;;15.50;55.32
12182;BME280;6154;51.550;12.138;2023-03-26T07:22:01;99395.50;;;15.63;55.13
12182;BME280;6154;51.550;12.138;2023-03-26T07:24:36;99391.75;;;15.65;55.29
12182;BME280;6154;51.550;12.138;2023-03-26T07:27:11;99394.66;;;15.72;55.11
12182;BME280;6154;51.550;12.138;2023-03-26T07:29:48;99379.72;;;15.98;54.80
12182;BME280;6154;51.550;12.138;2023-03-26T07:32:26;99379.28;;;16.03;54.71
12182;BME280;6154;51.550;12.138;2023-03-26T07:35:02;99381.88;;;16.22;53.88
12182;BME280;6154;51.550;12.138;2023-03-26T07:37:42;99382.59;;;16.24;54.28
12182;BME280;6154;51.550;12.138;2023-03-26T07:40:23;99376.63;;;16.40;53.59
12182;BME280;6154;51.550;12.138;2023-03-26T07:43:02;99375.72;;;16.49;53.95
12182;BME280;6154;51.550;12.138;2023-03-26T07:45:38;99372.34;;;16.20;53.28
12182;BME280;6154;51.550;12.138;2023-03-26T07:48:11;99372.00;;;16.32;54.25
12182;BME280;6154;51.550;12.138;2023-03-26T07:50:46;99364.94;;;16.14;53.62
12182;BME280;6154;51.550;12.138;2023-03-26T07:53:17;99360.63;;;16.30;54.05
12182;BME280;6154;51.550;12.138;2023-03-26T07:55:51;99370.97;;;16.43;54.04
12182;BME280;6154;51.550;12.138;2023-03-26T07:58:36;99373.25;;;16.38;53.34
12182;BME280;6154;51.550;12.138;2023-03-26T08:01:11;99370.41;;;16.12;53.55
12182;BME280;6154;51.550;12.138;2023-03-26T08:03:54;99363.88;;;16.34;53.52
12182;BME280;6154;51.550;12.138;2023-03-26T08:06:51;99358.13;;;16.56;52.66
12182;BME280;6154;51.550;12.138;2023-03-26T08:09:26;99358.31;;;16.73;53.32
12182;BME280;6154;51.550;12.138;2023-03-26T08:12:05;99360.50;;;16.87;52.88
12182;BME280;6154;51.550;12.138;2023-03-26T08:14:43;99365.81;;;16.69;51.79
12182;BME280;6154;51.550;12.138;2023-03-26T08:17:17;99354.06;;;16.80;51.82
12182;BME280;6154;51.550;12.138;2023-03-26T08:20:02;99347.69;;;17.08;52.85
12182;BME280;6154;51.550;12.138;2023-03-26T08:22:37;99346.22;;;17.32;52.07
12182;BME280;6154;51.550;12.138;2023-03-26T08:25:17;99351.47;;;17.41;51.81
12182;BME280;6154;51.550;12.138;2023-03-26T08:27:53;99343.16;;;17.44;51.61
12182;BME280;6154;51.550;12.138;2023-03-26T08:30:27;99345.37;;;17.31;51.42
12182;BME280;6154;51.550;12.138;2023-03-26T08:32:58;99345.53;;;17.30;52.20
12182;BME280;6154;51.550;12.138;2023-03-26T08:35:27;99342.31;;;16.90;51.39
12182;BME280;6154;51.550;12.138;2023-03-26T08:37:57;99345.16;;;17.24;52.09
12182;BME280;6154;51.550;12.138;2023-03-26T08:40:45;99346.75;;;17.35;52.71
12182;BME280;6154;51.550;12.138;2023-03-26T08:43:35;99337.34;;;17.13;51.85
12182;BME280;6154;51.550;12.138;2023-03-26T08:46:23;99337.50;;;17.30;51.93
12182;BME280;6154;51.550;12.138;2023-03-26T08:49:12;99337.06;;;17.16;51.66
12182;BME280;6154;51.550;12.138;2023-03-26T08:55:19;99330.97;;;17.50;51.71
12182;BME280;6154;51.550;12.138;2023-03-26T08:58:08;99328.25;;;17.86;50.69
12182;BME280;6154;51.550;12.138;2023-03-26T09:01:05;99324.66;;;18.03;50.40
12182;BME280;6154;51.550;12.138;2023-03-26T09:07:05;99327.91;;;18.15;50.57
12182;BME280;6154;51.550;12.138;2023-03-26T09:10:06;99329.78;;;18.22;50.04
12182;BME280;6154;51.550;12.138;2023-03-26T09:13:10;99322.78;;;18.29;49.89
12182;BME280;6154;51.550;12.138;2023-03-26T09:16:05;99307.16;;;18.59;49.48
12182;BME280;6154;51.550;12.138;2023-03-26T09:19:01;99309.06;;;18.66;50.57
12182;BME280;6154;51.550;12.138;2023-03-26T09:22:06;99304.97;;;18.62;49.00
12182;BME280;6154;51.550;12.138;2023-03-26T09:25:05;99307.06;;;18.77;48.59
12182;BME280;6154;51.550;12.138;2023-03-26T09:27:52;99304.75;;;19.06;49.45
12182;BME280;6154;51.550;12.138;2023-03-26T09:30:53;99294.69;;;19.00;47.46
12182;BME280;6154;51.550;12.138;2023-03-26T09:33:54;99291.03;;;19.26;46.63
12182;BME280;6154;51.550;12.138;2023-03-26T09:36:39;99284.78;;;19.41;47.80
12182;BME280;6154;51.550;12.138;2023-03-26T09:39:16;99289.12;;;19.50;48.68
12182;BME280;6154;51.550;12.138;2023-03-26T09:41:54;99283.13;;;19.65;48.70
12182;BME280;6154;51.550;12.138;2023-03-26T09:51:18;99294.72;;;19.57;46.27
12182;BME280;6154;51.550;12.138;2023-03-26T09:54:01;99293.88;;;19.65;47.18
12182;BME280;6154;51.550;12.138;2023-03-26T09:56:41;99295.16;;;19.52;47.90
12182;BME280;6154;51.550;12.138;2023-03-26T09:59:35;99280.56;;;19.71;48.88
12182;BME280;6154;51.550;12.138;2023-03-26T10:02:17;99284.09;;;19.72;46.26
12182;BME280;6154;51.550;12.138;2023-03-26T10:05:21;99277.06;;;19.63;47.81
12182;BME280;6154;51.550;12.138;2023-03-26T10:08:02;99276.06;;;19.39;46.74
12182;BME280;6154;51.550;12.138;2023-03-26T10:10:38;99277.91;;;19.47;48.34
12182;BME280;6154;51.550;12.138;2023-03-26T10:13:20;99275.41;;;19.29;48.27
12182;BME280;6154;51.550;12.138;2023-03-26T10:16:10;99271.00;;;19.52;48.63
12182;BME280;6154;51.550;12.138;2023-03-26T10:18:51;99260.16;;;19.46;47.71
12182;BME280;6154;51.550;12.138;2023-03-26T10:21:29;99256.28;;;19.65;48.49
12182;BME280;6154;51.550;12.138;2023-03-26T10:24:26;99250.53;;;19.76;48.86
12182;BME280;6154;51.550;12.138;2023-03-26T10:27:07;99237.84;;;20.01;46.17
12182;BME280;6154;51.550;12.138;2023-03-26T10:30:16;99229.56;;;20.19;47.97
12182;BME280;6154;51.550;12.138;2023-03-26T10:32:58;99228.78;;;20.02;44.46
12182;BME280;6154;51.550;12.138;2023-03-26T10:35:39;99224.94;;;20.35;46.39
12182;BME280;6154;51.550;12.138;2023-03-26T10:38:23;99220.44;;;20.59;44.80
12182;BME280;6154;51.550;12.138;2023-03-26T10:41:04;99216.25;;;20.79;43.87
12182;BME280;6154;51.550;12.138;2023-03-26T10:43:48;99218.16;;;20.71;43.76
12182;BME280;6154;51.550;12.138;2023-03-26T10:46:51;99213.47;;;21.10;45.47
12182;BME280;6154;51.550;12.138;2023-03-26T10:49:40;99212.91;;;21.00;42.26
12182;BME280;6154;51.550;12.138;2023-03-26T10:52:17;99211.03;;;21.01;44.18
12182;BME280;6154;51.550;12.138;2023-03-26T10:54:54;99206.63;;;21.22;46.83
12182;BME280;6154;51.550;12.138;2023-03-26T10:57:34;99215.03;;;21.28;44.88
12182;BME280;6154;51.550;12.138;2023-03-26T11:00:15;99207.31;;;21.24;43.77
12182;BME280;6154;51.550;12.138;2023-03-26T11:02:55;99199.53;;;21.44;44.89
12182;BME280;6154;51.550;12.138;2023-03-26T11:05:46;99197.28;;;21.33;43.26
12182;BME280;6154;51.550;12.138;2023-03-26T11:08:20;99198.44;;;21.39;44.10
12182;BME280;6154;51.550;12.138;2023-03-26T11:11:05;99189.31;;;21.25;46.21
12182;BME280;6154;51.550;12.138;2023-03-26T11:13:45;99191.13;;;21.10;44.80
12182;BME280;6154;51.550;12.138;2023-03-26T11:16:20;99199.28;;;20.79;42.82
12182;BME280;6154;51.550;12.138;2023-03-26T11:18:57;99194.38;;;20.59;45.77
12182;BME280;6154;51.550;12.138;2023-03-26T11:21:33;99190.63;;;20.46;45.70
12182;BME280;6154;51.550;12.138;2023-03-26T11:24:16;99191.13;;;20.41;45.75
12182;BME280;6154;51.550;12.138;2023-03-26T11:26:55;99198.06;;;20.35;45.29
12182;BME280;6154;51.550;12.138;2023-03-26T11:29:50;99189.03;;;20.28;46.50
12182;BME280;6154;51.550;12.138;2023-03-26T11:32:36;99194.44;;;19.89;44.58
12182;BME280;6154;51.550;12.138;2023-03-26T11:35:16;99188.06;;;19.82;46.39
12182;BME280;6154;51.550;12.138;2023-03-26T11:38:12;99182.88;;;19.80;46.18
12182;BME280;6154;51.550;12.138;2023-03-26T11:40:44;99187.06;;;19.83;46.27
12182;BME280;6154;51.550;12.138;2023-03-26T11:43:21;99188.41;;;19.87;46.97
12182;BME280;6154;51.550;12.138;2023-03-26T11:45:52;99188.25;;;19.80;47.03
12182;BME280;6154;51.550;12.138;2023-03-26T11:48:24;99177.03;;;19.77;46.90
12182;BME280;6154;51.550;12.138;2023-03-26T11:50:57;99175.19;;;19.77;47.12
12182;BME280;6154;51.550;12.138;2023-03-26T11:53:28;99175.34;;;20.15;47.45
12182;BME280;6154;51.550;12.138;2023-03-26T11:56:03;99177.87;;;20.62;46.14
12182;BME280;6154;51.550;12.138;2023-03-26T11:58:37;99178.84;;;20.70;46.34
12182;BME280;6154;51.550;12.138;2023-03-26T12:01:16;99183.09;;;20.64;45.33
12182;BME280;6154;51.550;12.138;2023-03-26T12:03:57;99180.91;;;20.67;44.32
12182;BME280;6154;51.550;12.138;2023-03-26T12:06:26;99177.56;;;20.65;44.79
12182;BME280;6154;51.550;12.138;2023-03-26T12:08:55;99177.53;;;20.88;46.58
12182;BME280;6154;51.550;12.138;2023-03-26T12:11:25;99180.41;;;20.87;46.54
12182;BME280;6154;51.550;12.138;2023-03-26T12:13:57;99178.25;;;20.59;45.04
12182;BME280;6154;51.550;12.138;2023-03-26T12:16:27;99171.22;;;20.58;46.56
12182;BME280;6154;51.550;12.138;2023-03-26T12:18:58;99162.56;;;20.40;46.80
12182;BME280;6154;51.550;12.138;2023-03-26T12:21:26;99153.63;;;20.25;46.44
12182;BME280;6154;51.550;12.138;2023-03-26T12:23:57;99152.41;;;20.27;46.60
12182;BME280;6154;51.550;12.138;2023-03-26T12:26:34;99152.81;;;20.47;46.90
12182;BME280;6154;51.550;12.138;2023-03-26T12:29:06;99145.63;;;20.62;45.05
12182;BME280;6154;51.550;12.138;2023-03-26T12:31:50;99139.66;;;20.75;46.42
12182;BME280;6154;51.550;12.138;2023-03-26T12:34:21;99146.66;;;20.99;43.27
12182;BME280;6154;51.550;12.138;2023-03-26T12:36:51;99143.97;;;21.14;46.37
12182;BME280;6154;51.550;12.138;2023-03-26T12:39:32;99140.37;;;21.21;46.13
12182;BME280;6154;51.550;12.138;2023-03-26T12:42:26;99145.88;;;21.28;44.70
12182;BME280;6154;51.550;12.138;2023-03-26T12:45:15;99144.41;;;21.40;45.23
12182;BME280;6154;51.550;12.138;2023-03-26T12:47:44;99147.75;;;21.57;45.78
12182;BME280;6154;51.550;12.138;2023-03-26T12:50:39;99149.13;;;21.53;45.38
12182;BME280;6154;51.550;12.138;2023-03-26T12:53:22;99144.72;;;21.08;42.12
12182;BME280;6154;51.550;12.138;2023-03-26T12:55:59;99139.59;;;20.98;42.48
12182;BME280;6154;51.550;12.138;2023-03-26T12:58:56;99140.13;;;20.93;45.60
12182;BME280;6154;51.550;12.138;2023-03-26T13:01:37;99135.97;;;20.91;43.36
12182;BME280;6154;51.550;12.138;2023-03-26T13:04:34;99143.34;;;20.74;44.43
12182;BME280;6154;51.550;12.138;2023-03-26T13:07:21;99141.19;;;20.55;43.93
12182;BME280;6154;51.550;12.138;2023-03-26T13:10:01;99140.03;;;20.49;44.89
12182;BME280;6154;51.550;12.138;2023-03-26T13:12:39;99132.72;;;20.35;43.79
12182;BME280;6154;51.550;12.138;2023-03-26T13:15:18;99133.78;;;20.26;44.48
12182;BME280;6154;51.550;12.138;2023-03-26T13:17:58;99128.41;;;20.26;45.36
12182;BME280;6154;51.550;12.138;2023-03-26T13:20:40;99125.78;;;20.18;44.73
12182;BME280;6154;51.550;12.138;2023-03-26T13:23:21;99128.06;;;20.29;44.54
12182;BME280;6154;51.550;12.138;2023-03-26T13:25:59;99119.22;;;20.43;45.63
12182;BME280;6154;51.550;12.138;2023-03-26T13:28:38;99121.88;;;19.97;43.80
12182;BME280;6154;51.550;12.138;2023-03-26T13:31:13;99111.81;;;20.22;44.91
12182;BME280;6154;51.550;12.138;2023-03-26T13:33:51;99119.38;;;20.19;44.25
12182;BME280;6154;51.550;12.138;2023-03-26T13:36:32;99110.53;;;20.33;45.70
12182;BME280;6154;51.550;12.138;2023-03-26T13:39:16;99114.19;;;20.17;44.62
12182;BME280;6154;51.550;12.138;2023-03-26T13:41:58;99119.59;;;19.86;44.01
12182;BME280;6154;51.550;12.138;2023-03-26T13:44:37;99118.72;;;19.55;45.45
12182;BME280;6154;51.550;12.138;2023-03-26T13:47:13;99115.53;;;19.59;46.07
12182;BME280;6154;51.550;12.138;2023-03-26T13:49:47;99115.72;;;19.49;47.26
12182;BME280;6154;51.550;12.138;2023-03-26T13:52:21;99117.34;;;19.11;47.26
12182;BME280;6154;51.550;12.138;2023-03-26T13:54:56;99114.88;;;18.85;47.64
12182;BME280;6154;51.550;12.138;2023-03-26T13:57:31;99121.56;;;18.98;47.90